Time;durP1;ratioP1;P1;durP2;ratioP2;P2;SDS_P1;SDS_P2;PMS_P1;PMS_P2;Temp;Humidity;BMP_temperature;BMP_pressure;BME280_temperature;BME280_humidity;BME280_pressure;Samples;Min_cycle;Max_cycle;Signal;HPM_P1;HPM_P2
2021/12/01 08:56:54;;;;;;;0.20;0.20;;;;;;;;;;6263953;22;20203;-91
2021/12/01 08:59:21;;;;;;;0.30;0.30;;;;;;;;;;6267296;22;20193;-91
2021/12/01 09:01:48;;;;;;;0.43;0.30;;;;;;;;;;6255477;23;20177;-89
2021/12/01 09:04:16;;;;;;;0.43;0.43;;;;;;;;;;6254684;23;20200;-90
2021/12/01 09:06:43;;;;;;;0.40;0.30;;;;;;;;;;6251034;23;20181;-92
2021/12/01 09:09:17;;;;;;;0.30;0.30;;;;;;;;;;6241792;22;20251;-91
2021/12/01 09:11:45;;;;;;;0.67;0.40;;;;;;;;;;6239951;23;20673;-90
2021/12/01 09:14:13;;;;;;;0.77;0.40;;;;;;;;;;6238914;23;20247;-89
2021/12/01 09:16:41;;;;;;;0.73;0.30;;;;;;;;;;6238607;23;20177;-91
2021/12/01 09:19:09;;;;;;;0.20;0.20;;;;;;;;;;6239814;22;20280;-90
2021/12/01 09:21:36;;;;;;;2.10;0.33;;;;;;;;;;6239854;23;20227;-91
2021/12/01 09:24:04;;;;;;;1.23;0.33;;;;;;;;;;6237781;23;20730;-91
2021/12/01 09:26:31;;;;;;;0.40;0.40;;;;;;;;;;6238705;23;20178;-91
2021/12/01 09:28:58;;;;;;;0.40;0.30;;;;;;;;;;6239258;22;20208;-90
2021/12/01 09:31:27;;;;;;;0.20;0.20;;;;;;;;;;6239255;23;20231;-89
2021/12/01 09:33:54;;;;;;;0.47;0.30;;;;;;;;;;6238125;23;20169;-91
2021/12/01 09:36:22;;;;;;;0.30;0.30;;;;;;;;;;6239308;23;20173;-90
2021/12/01 09:38:51;;;;;;;0.20;0.20;;;;;;;;;;6238972;22;20197;-91
2021/12/01 09:41:19;;;;;;;0.30;0.30;;;;;;;;;;6239227;23;20231;-91
2021/12/01 09:43:46;;;;;;;0.20;0.20;;;;;;;;;;6237635;23;20196;-89
2021/12/01 09:46:14;;;;;;;0.20;0.20;;;;;;;;;;6238036;23;20231;-91
2021/12/01 09:48:43;;;;;;;0.20;0.20;;;;;;;;;;6238790;22;20198;-91
2021/12/01 09:51:11;;;;;;;0.20;0.20;;;;;;;;;;6238353;23;20185;-92
2021/12/01 09:53:38;;;;;;;0.13;0.13;;;;;;;;;;6240271;23;20239;-91
2021/12/01 09:56:06;;;;;;;0.20;0.20;;;;;;;;;;6259383;22;20181;-91
2021/12/01 09:58:33;;;;;;;3.80;0.30;;;;;;;;;;6269174;22;20196;-91
2021/12/01 10:01:01;;;;;;;0.10;0.10;;;;;;;;;;6270123;22;20513;-88
2021/12/01 10:03:29;;;;;;;0.20;0.20;;;;;;;;;;6269273;22;20238;-91
2021/12/01 10:06:04;;;;;;;0.17;0.17;;;;;;;;;;6269017;22;20238;-91
2021/12/01 10:08:33;;;;;;;0.10;0.10;;;;;;;;;;6269740;22;20196;-91
2021/12/01 10:11:00;;;;;;;0.10;0.10;;;;;;;;;;6269587;22;20180;-89
2021/12/01 10:13:29;;;;;;;0.20;0.20;;;;;;;;;;6270860;22;20176;-91
2021/12/01 10:15:58;;;;;;;0.30;0.30;;;;;;;;;;6271120;22;20242;-91
2021/12/01 10:18:26;;;;;;;0.20;0.20;;;;;;;;;;6272103;22;20197;-90
2021/12/01 10:21:04;;;;;;;0.10;0.10;;;;;;;;;;6270495;22;20228;-91
2021/12/01 10:23:31;;;;;;;0.00;0.00;;;;;;;;;;6271589;22;20242;-91
2021/12/01 10:26:07;;;;;;;2.50;0.30;;;;;;;;;;6271369;22;20223;-91
2021/12/01 10:28:35;;;;;;;0.43;0.43;;;;;;;;;;6270084;22;20208;-92
2021/12/01 10:31:03;;;;;;;0.10;0.10;;;;;;;;;;6270699;22;20188;-90
2021/12/01 10:33:30;;;;;;;0.20;0.20;;;;;;;;;;6271384;22;20177;-89
2021/12/01 10:35:58;;;;;;;0.67;0.00;;;;;;;;;;6272080;22;20850;-90
2021/12/01 10:38:32;;;;;;;0.20;0.20;;;;;;;;;;6269865;22;20246;-91
2021/12/01 10:41:03;;;;;;;0.20;0.20;;;;;;;;;;6275623;22;20172;-91
2021/12/01 10:43:38;;;;;;;0.20;0.20;;;;;;;;;;6276916;22;20230;-92
2021/12/01 10:46:09;;;;;;;0.33;0.30;;;;;;;;;;6275896;22;20184;-91
2021/12/01 10:48:36;;;;;;;0.20;0.20;;;;;;;;;;6276668;22;20196;-92
2021/12/01 10:51:14;;;;;;;1.07;0.40;;;;;;;;;;6276977;22;20180;-91
2021/12/01 10:53:43;;;;;;;0.40;0.40;;;;;;;;;;6277013;22;20177;-92
2021/12/01 10:56:11;;;;;;;0.20;0.20;;;;;;;;;;6274695;22;20215;-92
2021/12/01 10:58:40;;;;;;;0.40;0.40;;;;;;;;;;6276442;22;20215;-92
2021/12/01 11:01:08;;;;;;;0.40;0.40;;;;;;;;;;6283286;22;20230;-92
2021/12/01 11:03:36;;;;;;;0.30;0.30;;;;;;;;;;6282608;22;20199;-91
2021/12/01 11:06:13;;;;;;;0.20;0.20;;;;;;;;;;6275792;22;20212;-91
2021/12/01 11:08:41;;;;;;;1.30;0.20;;;;;;;;;;6276592;22;20651;-89
2021/12/01 11:11:11;;;;;;;1.50;0.33;;;;;;;;;;6276379;22;20183;-91
2021/12/01 11:13:39;;;;;;;0.17;0.17;;;;;;;;;;6275916;22;20176;-92
2021/12/01 11:16:07;;;;;;;0.30;0.30;;;;;;;;;;6275614;22;20173;-91
2021/12/01 11:18:36;;;;;;;0.40;0.40;;;;;;;;;;6276444;22;20509;-91
2021/12/01 11:21:07;;;;;;;0.33;0.30;;;;;;;;;;6277039;22;20184;-92
2021/12/01 11:23:36;;;;;;;0.20;0.20;;;;;;;;;;6276042;22;20252;-91
2021/12/01 11:26:05;;;;;;;0.17;0.17;;;;;;;;;;6275930;22;20199;-92
2021/12/01 11:28:36;;;;;;;0.20;0.20;;;;;;;;;;6275837;22;20197;-91
2021/12/01 11:31:06;;;;;;;0.13;0.13;;;;;;;;;;6275602;22;20205;-91
2021/12/01 11:33:33;;;;;;;0.20;0.20;;;;;;;;;;6276302;22;20177;-92
2021/12/01 11:36:02;;;;;;;0.40;0.40;;;;;;;;;;6276175;22;20235;-92
2021/12/01 11:38:29;;;;;;;0.20;0.20;;;;;;;;;;6276037;22;20250;-92
2021/12/01 11:40:57;;;;;;;0.77;0.30;;;;;;;;;;6275709;22;20177;-92
2021/12/01 11:43:26;;;;;;;0.20;0.20;;;;;;;;;;6276128;22;20200;-92
2021/12/01 11:45:54;;;;;;;0.30;0.30;;;;;;;;;;6276126;22;20737;-91
2021/12/01 11:48:24;;;;;;;0.50;0.27;;;;;;;;;;6282636;22;20196;-91
2021/12/01 11:50:57;;;;;;;0.30;0.30;;;;;;;;;;6275852;22;20173;-92
2021/12/01 11:53:25;;;;;;;1.20;0.37;;;;;;;;;;6280485;22;20634;-93
2021/12/01 11:55:54;;;;;;;0.20;0.20;;;;;;;;;;6275050;22;20184;-92
2021/12/01 11:58:48;;;;;;;0.40;0.23;;;;;;;;;;6275305;22;20192;-92
2021/12/01 12:01:35;;;;;;;0.40;0.40;;;;;;;;;;6221539;22;20176;-92
2021/12/01 12:04:16;;;;;;;1.23;0.57;;;;;;;;;;6275247;22;20176;-93
2021/12/01 12:06:46;;;;;;;0.67;0.53;;;;;;;;;;6275149;22;20213;-93
2021/12/01 12:09:13;;;;;;;0.30;0.30;;;;;;;;;;6275989;22;20258;-93
2021/12/01 12:11:42;;;;;;;0.50;0.30;;;;;;;;;;6276261;22;20181;-92
2021/12/01 12:14:11;;;;;;;0.50;0.50;;;;;;;;;;6274901;22;20172;-93
2021/12/01 12:16:38;;;;;;;0.50;0.47;;;;;;;;;;6276249;22;20199;-93
2021/12/01 12:19:06;;;;;;;0.40;0.40;;;;;;;;;;6276309;22;20200;-93
2021/12/01 12:21:41;;;;;;;0.40;0.30;;;;;;;;;;6276378;22;20176;-93
2021/12/01 12:24:10;;;;;;;0.40;0.40;;;;;;;;;;6274635;22;20169;-91
2021/12/01 12:26:41;;;;;;;0.30;0.27;;;;;;;;;;6275633;22;20165;-94
2021/12/01 12:29:09;;;;;;;0.40;0.40;;;;;;;;;;6275190;22;20268;-93
2021/12/01 12:31:37;;;;;;;0.40;0.40;;;;;;;;;;6274614;22;20179;-93
2021/12/01 12:34:09;;;;;;;0.37;0.37;;;;;;;;;;6275617;22;20176;-93
2021/12/01 12:36:39;;;;;;;0.30;0.30;;;;;;;;;;6274906;22;20691;-94
2021/12/01 12:39:08;;;;;;;0.40;0.40;;;;;;;;;;6274854;22;20215;-91
2021/12/01 12:41:50;;;;;;;1.27;0.57;;;;;;;;;;6275182;22;20201;-93
2021/12/01 12:44:30;;;;;;;0.33;0.30;;;;;;;;;;6275405;22;20232;-93
2021/12/01 12:47:04;;;;;;;0.40;0.40;;;;;;;;;;6275413;22;20230;-93
2021/12/01 12:49:38;;;;;;;0.33;0.30;;;;;;;;;;6274464;22;20195;-93
2021/12/01 12:52:24;;;;;;;0.30;0.30;;;;;;;;;;6275564;22;20179;-92
2021/12/01 12:54:53;;;;;;;0.30;0.30;;;;;;;;;;6276043;22;20192;-93
2021/12/01 12:57:22;;;;;;;0.20;0.20;;;;;;;;;;6275366;22;20169;-90
2021/12/01 12:59:49;;;;;;;0.23;0.23;;;;;;;;;;6274854;22;20227;-93
2021/12/01 13:02:33;;;;;;;0.40;0.30;;;;;;;;;;6275396;22;20183;-92
2021/12/01 13:05:07;;;;;;;0.43;0.40;;;;;;;;;;6275941;22;20268;-91
2021/12/01 13:07:35;;;;;;;0.30;0.30;;;;;;;;;;6274104;22;20173;-93
2021/12/01 13:10:05;;;;;;;0.30;0.30;;;;;;;;;;6275406;22;20242;-92
2021/12/01 13:12:44;;;;;;;2.00;0.50;;;;;;;;;;6275561;22;20242;-91
2021/12/01 13:15:19;;;;;;;1.03;0.30;;;;;;;;;;6275696;22;20171;-93
2021/12/01 13:17:47;;;;;;;0.20;0.20;;;;;;;;;;6274183;22;20200;-92
2021/12/01 13:20:14;;;;;;;0.23;0.23;;;;;;;;;;6275494;22;20646;-93
2021/12/01 13:22:42;;;;;;;0.40;0.30;;;;;;;;;;6275597;22;20604;-93
2021/12/01 13:25:17;;;;;;;0.40;0.40;;;;;;;;;;6276354;22;20246;-91
2021/12/01 13:27:45;;;;;;;0.27;0.20;;;;;;;;;;6274057;22;20742;-93
2021/12/01 13:30:16;;;;;;;0.43;0.43;;;;;;;;;;6274066;22;20177;-93
2021/12/01 13:32:54;;;;;;;0.20;0.20;;;;;;;;;;6274901;22;20176;-93
2021/12/01 13:35:29;;;;;;;0.40;0.40;;;;;;;;;;6275625;22;20192;-92
2021/12/01 13:37:57;;;;;;;0.60;0.60;;;;;;;;;;6273609;22;20196;-92
2021/12/01 13:40:28;;;;;;;1.80;1.70;;;;;;;;;;6275446;22;20188;-93
2021/12/01 13:42:56;;;;;;;1.70;1.30;;;;;;;;;;6275278;22;20168;-92
2021/12/01 13:45:26;;;;;;;1.30;1.30;;;;;;;;;;6275679;22;20802;-93
2021/12/01 13:47:53;;;;;;;0.30;0.30;;;;;;;;;;6275576;22;20652;-93
2021/12/01 13:50:21;;;;;;;0.60;0.60;;;;;;;;;;6277297;22;20217;-92
2021/12/01 13:52:51;;;;;;;0.50;0.50;;;;;;;;;;6276921;22;20547;-93
2021/12/01 13:55:20;;;;;;;0.30;0.30;;;;;;;;;;6276773;22;20256;-92
2021/12/01 13:57:49;;;;;;;0.50;0.40;;;;;;;;;;6276515;22;20203;-93
2021/12/01 14:00:17;;;;;;;0.40;0.40;;;;;;;;;;6277335;22;20611;-93
2021/12/01 14:02:44;;;;;;;0.30;0.30;;;;;;;;;;6277223;22;20517;-93
2021/12/01 14:05:12;;;;;;;0.47;0.40;;;;;;;;;;6276658;22;20623;-93
2021/12/01 14:07:45;;;;;;;0.40;0.40;;;;;;;;;;6276658;22;20499;-92
2021/12/01 14:10:19;;;;;;;1.03;0.37;;;;;;;;;;6277490;22;20180;-91
2021/12/01 14:12:53;;;;;;;0.40;0.40;;;;;;;;;;6276456;22;20179;-93
2021/12/01 14:15:31;;;;;;;0.63;0.57;;;;;;;;;;6277236;22;20173;-93
2021/12/01 14:17:58;;;;;;;0.50;0.50;;;;;;;;;;6276333;22;20199;-93
2021/12/01 14:20:26;;;;;;;2.43;0.60;;;;;;;;;;6277172;22;20525;-93
2021/12/01 14:22:54;;;;;;;1.27;0.50;;;;;;;;;;6276288;22;20612;-93
2021/12/01 14:25:21;;;;;;;0.50;0.50;;;;;;;;;;6276477;22;20242;-93
2021/12/01 14:28:07;;;;;;;0.53;0.40;;;;;;;;;;6274385;22;20192;-92
2021/12/01 14:30:35;;;;;;;1.90;0.80;;;;;;;;;;6276283;22;20169;-92
2021/12/01 14:33:02;;;;;;;0.60;0.47;;;;;;;;;;6271759;22;20239;-92
2021/12/01 14:35:43;;;;;;;0.40;0.40;;;;;;;;;;6272178;22;20173;-93
2021/12/01 14:38:10;;;;;;;0.57;0.50;;;;;;;;;;6274811;22;20201;-92
2021/12/01 14:40:44;;;;;;;1.10;0.60;;;;;;;;;;6276476;22;20180;-92
2021/12/01 14:43:13;;;;;;;0.90;0.50;;;;;;;;;;6276596;22;20234;-92
2021/12/01 14:45:47;;;;;;;0.37;0.30;;;;;;;;;;6276403;22;20189;-92
2021/12/01 14:48:15;;;;;;;0.87;0.87;;;;;;;;;;6275361;22;20199;-93
2021/12/01 14:50:49;;;;;;;1.13;0.60;;;;;;;;;;6276163;22;20635;-92
2021/12/01 14:53:17;;;;;;;0.63;0.60;;;;;;;;;;6277261;22;20230;-93
2021/12/01 14:55:46;;;;;;;0.40;0.40;;;;;;;;;;6275746;22;20180;-92
2021/12/01 14:58:16;;;;;;;0.43;0.43;;;;;;;;;;6276165;22;20201;-93
2021/12/01 15:00:44;;;;;;;0.60;0.60;;;;;;;;;;6277032;22;20176;-92
2021/12/01 15:03:14;;;;;;;1.13;0.43;;;;;;;;;;6276887;22;20176;-92
2021/12/01 15:05:51;;;;;;;0.40;0.40;;;;;;;;;;6275349;22;20219;-91
2021/12/01 15:08:25;;;;;;;0.57;0.50;;;;;;;;;;6276115;22;20509;-92
2021/12/01 15:10:53;;;;;;;0.50;0.50;;;;;;;;;;6276873;22;20176;-92
2021/12/01 15:13:24;;;;;;;1.00;0.60;;;;;;;;;;6275727;22;20182;-92
2021/12/01 15:15:53;;;;;;;0.50;0.50;;;;;;;;;;6276638;22;20222;-93
2021/12/01 15:18:21;;;;;;;1.17;0.83;;;;;;;;;;6276168;22;20226;-93
2021/12/01 15:20:53;;;;;;;1.90;0.60;;;;;;;;;;6275485;22;20203;-93
2021/12/01 15:23:21;;;;;;;1.40;0.40;;;;;;;;;;6276573;22;20173;-93
2021/12/01 15:25:49;;;;;;;0.47;0.47;;;;;;;;;;6276827;22;20219;-93
2021/12/01 15:28:16;;;;;;;0.30;0.30;;;;;;;;;;6275747;22;20266;-93
2021/12/01 15:30:46;;;;;;;2.33;0.60;;;;;;;;;;6275749;22;20184;-92
2021/12/01 15:33:14;;;;;;;1.67;1.13;;;;;;;;;;6276642;22;20257;-92
2021/12/01 15:35:42;;;;;;;0.50;0.50;;;;;;;;;;6275548;22;20207;-92
2021/12/01 15:38:10;;;;;;;0.40;0.40;;;;;;;;;;6275734;22;20274;-92
2021/12/01 15:40:37;;;;;;;0.43;0.43;;;;;;;;;;6276326;22;20232;-92
2021/12/01 15:43:04;;;;;;;0.37;0.30;;;;;;;;;;6276079;22;20181;-92
2021/12/01 15:45:35;;;;;;;1.57;0.63;;;;;;;;;;6276385;22;20511;-92
2021/12/01 15:48:03;;;;;;;0.53;0.50;;;;;;;;;;6274727;22;20197;-92
2021/12/01 15:50:31;;;;;;;0.50;0.50;;;;;;;;;;6276017;22;20176;-92
2021/12/01 15:53:00;;;;;;;0.60;0.60;;;;;;;;;;6275705;22;20187;-92
2021/12/01 15:55:28;;;;;;;0.70;0.43;;;;;;;;;;6276327;22;20204;-93
2021/12/01 15:57:55;;;;;;;0.53;0.50;;;;;;;;;;6274639;22;20196;-92
2021/12/01 16:00:25;;;;;;;0.30;0.30;;;;;;;;;;6275942;22;20227;-92
2021/12/01 16:02:53;;;;;;;0.50;0.50;;;;;;;;;;6275753;22;20175;-92
2021/12/01 16:05:22;;;;;;;1.00;0.40;;;;;;;;;;6274805;22;20172;-93
2021/12/01 16:07:50;;;;;;;0.50;0.50;;;;;;;;;;6275568;22;20196;-92
2021/12/01 16:10:17;;;;;;;0.97;0.30;;;;;;;;;;6275612;22;20177;-92
2021/12/01 16:12:45;;;;;;;0.67;0.50;;;;;;;;;;6276286;22;20691;-91
2021/12/01 16:15:13;;;;;;;0.27;0.27;;;;;;;;;;6274718;22;20507;-92
2021/12/01 16:17:41;;;;;;;0.30;0.30;;;;;;;;;;6275175;22;20173;-92
2021/12/01 16:20:09;;;;;;;0.60;0.60;;;;;;;;;;6276236;22;20183;-93
2021/12/01 16:22:38;;;;;;;7.50;3.73;;;;;;;;;;6275282;22;20173;-93
2021/12/01 16:25:06;;;;;;;9.87;6.13;;;;;;;;;;6276002;22;20548;-93
2021/12/01 16:27:33;;;;;;;10.43;5.60;;;;;;;;;;6275691;22;20196;-92
2021/12/01 16:30:05;;;;;;;3.17;1.20;;;;;;;;;;6276153;22;20177;-93
2021/12/01 16:32:33;;;;;;;1.33;0.87;;;;;;;;;;6275177;22;20184;-92
2021/12/01 16:35:00;;;;;;;0.80;0.80;;;;;;;;;;6275600;22;20180;-92
2021/12/01 16:37:27;;;;;;;0.40;0.40;;;;;;;;;;6275860;22;20169;-92
2021/12/01 16:39:56;;;;;;;0.77;0.70;;;;;;;;;;6274818;22;20177;-92
2021/12/01 16:42:23;;;;;;;3.90;0.50;;;;;;;;;;6275221;22;20184;-93
2021/12/01 16:44:51;;;;;;;0.63;0.60;;;;;;;;;;6275625;22;20666;-92
2021/12/01 16:47:18;;;;;;;1.83;0.60;;;;;;;;;;6275795;22;20728;-92
2021/12/01 16:49:46;;;;;;;0.73;0.73;;;;;;;;;;6273955;22;20223;-91
2021/12/01 16:52:14;;;;;;;0.50;0.50;;;;;;;;;;6275422;22;20181;-92
2021/12/01 16:54:41;;;;;;;1.13;1.13;;;;;;;;;;6275715;22;20260;-92
2021/12/01 16:57:10;;;;;;;4.63;1.40;;;;;;;;;;6274704;22;20230;-92
2021/12/01 16:59:38;;;;;;;1.67;1.57;;;;;;;;;;6275323;22;20200;-92
2021/12/01 17:02:05;;;;;;;0.93;0.90;;;;;;;;;;6275854;22;20243;-92
2021/12/01 17:04:35;;;;;;;0.93;0.93;;;;;;;;;;6275908;22;20173;-92
2021/12/01 17:07:09;;;;;;;1.50;1.40;;;;;;;;;;6274339;22;20199;-92
2021/12/01 17:09:37;;;;;;;1.70;1.60;;;;;;;;;;6275341;22;20198;-92
2021/12/01 17:12:05;;;;;;;1.63;1.47;;;;;;;;;;6275329;22;20177;-92
2021/12/01 17:14:34;;;;;;;0.70;0.70;;;;;;;;;;6275731;22;20240;-92
2021/12/01 17:17:02;;;;;;;0.67;0.67;;;;;;;;;;6274162;22;20620;-92
2021/12/01 17:19:30;;;;;;;0.60;0.60;;;;;;;;;;6274814;22;20253;-92
2021/12/01 17:22:05;;;;;;;1.23;1.03;;;;;;;;;;6277676;22;20173;-91
2021/12/01 17:24:33;;;;;;;0.67;0.67;;;;;;;;;;6277877;22;20172;-92
2021/12/01 17:27:07;;;;;;;1.17;1.07;;;;;;;;;;6276059;22;20207;-92
2021/12/01 17:29:36;;;;;;;0.43;0.43;;;;;;;;;;6277529;22;20266;-92
2021/12/01 17:32:07;;;;;;;0.73;0.40;;;;;;;;;;6277238;22;20230;-93
2021/12/01 17:34:35;;;;;;;0.30;0.30;;;;;;;;;;6276632;22;20173;-92
2021/12/01 17:37:06;;;;;;;0.30;0.30;;;;;;;;;;6276670;22;20226;-92
2021/12/01 17:39:35;;;;;;;1.70;0.43;;;;;;;;;;6277174;22;20196;-92
2021/12/01 17:42:02;;;;;;;0.80;0.57;;;;;;;;;;6276326;22;20572;-93
2021/12/01 17:44:30;;;;;;;0.47;0.40;;;;;;;;;;6277083;22;20187;-92
2021/12/01 17:46:59;;;;;;;0.47;0.47;;;;;;;;;;6276578;22;20224;-92
2021/12/01 17:49:40;;;;;;;0.50;0.50;;;;;;;;;;6272437;22;20200;-91
2021/12/01 17:52:26;;;;;;;0.33;0.30;;;;;;;;;;6275315;22;20643;-92
2021/12/01 17:54:53;;;;;;;0.27;0.27;;;;;;;;;;6276846;22;20238;-92
2021/12/01 17:57:47;;;;;;;0.40;0.40;;;;;;;;;;6276752;22;20177;-92
2021/12/01 18:00:15;;;;;;;1.43;0.47;;;;;;;;;;6277195;22;20236;-92
2021/12/01 18:02:45;;;;;;;6.87;3.90;;;;;;;;;;6277351;22;20190;-92
2021/12/01 18:05:12;;;;;;;28.80;17.13;;;;;;;;;;6277249;22;20180;-92
2021/12/01 18:07:40;;;;;;;0.73;0.73;;;;;;;;;;6275928;22;20197;-92
2021/12/01 18:10:07;;;;;;;0.60;0.60;;;;;;;;;;6277271;22;20180;-92
2021/12/01 18:12:35;;;;;;;0.90;0.80;;;;;;;;;;6277459;22;20173;-92
2021/12/01 18:15:02;;;;;;;1.20;1.20;;;;;;;;;;6276480;22;20629;-92
2021/12/01 18:17:29;;;;;;;1.23;1.13;;;;;;;;;;6276643;22;20230;-92
2021/12/01 18:19:58;;;;;;;1.43;1.37;;;;;;;;;;6277125;22;20231;-92
2021/12/01 18:22:25;;;;;;;0.70;0.70;;;;;;;;;;6276868;22;20180;-92
2021/12/01 18:24:53;;;;;;;0.70;0.70;;;;;;;;;;6275805;22;20498;-92
2021/12/01 18:27:20;;;;;;;1.20;1.20;;;;;;;;;;6276467;22;20188;-92
2021/12/01 18:29:48;;;;;;;0.30;0.30;;;;;;;;;;6276912;22;20197;-91
2021/12/01 18:32:15;;;;;;;0.40;0.40;;;;;;;;;;6275571;22;20230;-91
2021/12/01 18:34:43;;;;;;;0.60;0.60;;;;;;;;;;6276371;22;20177;-91
2021/12/01 18:37:11;;;;;;;0.57;0.57;;;;;;;;;;6276540;22;20238;-91
2021/12/01 18:39:39;;;;;;;0.90;0.90;;;;;;;;;;6277176;22;20290;-92
2021/12/01 18:42:25;;;;;;;0.70;0.70;;;;;;;;;;6275218;22;20184;-91
2021/12/01 18:44:53;;;;;;;1.47;0.70;;;;;;;;;;6276235;22;20176;-91
2021/12/01 18:47:21;;;;;;;2.00;0.80;;;;;;;;;;6276531;22;20250;-92
2021/12/01 18:49:48;;;;;;;0.90;0.80;;;;;;;;;;6277003;22;20200;-92
2021/12/01 18:52:17;;;;;;;0.57;0.40;;;;;;;;;;6275274;22;20238;-90
2021/12/01 18:54:45;;;;;;;0.50;0.50;;;;;;;;;;6276927;22;20222;-91
2021/12/01 18:57:12;;;;;;;0.40;0.40;;;;;;;;;;6276985;22;20168;-92
2021/12/01 18:59:39;;;;;;;0.60;0.40;;;;;;;;;;6275321;22;20269;-92
2021/12/01 19:02:07;;;;;;;0.70;0.70;;;;;;;;;;6276775;22;20196;-92
2021/12/01 19:04:34;;;;;;;0.50;0.50;;;;;;;;;;6276636;22;20232;-93
2021/12/01 19:07:01;;;;;;;0.60;0.60;;;;;;;;;;6275423;22;20192;-92
2021/12/01 19:09:30;;;;;;;0.60;0.60;;;;;;;;;;6275270;22;20197;-92
2021/12/01 19:11:57;;;;;;;3.43;2.37;;;;;;;;;;6276446;22;20176;-92
2021/12/01 19:14:25;;;;;;;1.33;0.87;;;;;;;;;;6276762;22;20242;-92
2021/12/01 19:16:52;;;;;;;1.30;1.20;;;;;;;;;;6276053;22;20177;-91
2021/12/01 19:19:19;;;;;;;1.50;0.80;;;;;;;;;;6275360;22;20196;-92
2021/12/01 19:21:47;;;;;;;0.67;0.67;;;;;;;;;;6275851;22;20624;-93
2021/12/01 19:24:14;;;;;;;1.87;1.77;;;;;;;;;;6277075;22;20634;-92
2021/12/01 19:26:43;;;;;;;0.50;0.50;;;;;;;;;;6275590;22;20177;-91
2021/12/01 19:29:11;;;;;;;1.63;0.60;;;;;;;;;;6275283;22;20200;-92
2021/12/01 19:31:39;;;;;;;0.53;0.53;;;;;;;;;;6276478;22;20177;-92
2021/12/01 19:34:06;;;;;;;0.50;0.50;;;;;;;;;;6277132;22;20180;-91
2021/12/01 19:36:34;;;;;;;0.47;0.47;;;;;;;;;;6275106;22;20185;-92
2021/12/01 19:39:01;;;;;;;0.60;0.60;;;;;;;;;;6274889;22;20207;-92
2021/12/01 19:41:29;;;;;;;0.83;0.80;;;;;;;;;;6275581;22;20195;-92
2021/12/01 19:44:11;;;;;;;2.07;0.60;;;;;;;;;;6275451;22;20181;-92
2021/12/01 19:46:39;;;;;;;0.40;0.40;;;;;;;;;;6275160;22;20172;-92
2021/12/01 19:49:13;;;;;;;0.57;0.57;;;;;;;;;;6275508;22;20196;-92
2021/12/01 19:51:40;;;;;;;0.70;0.70;;;;;;;;;;6276126;22;20276;-91
2021/12/01 19:54:08;;;;;;;0.87;0.87;;;;;;;;;;6274470;22;20177;-92
2021/12/01 19:56:35;;;;;;;0.77;0.77;;;;;;;;;;6274533;22;20188;-92
2021/12/01 19:59:03;;;;;;;0.50;0.50;;;;;;;;;;6275659;22;20197;-92
2021/12/01 20:01:31;;;;;;;0.60;0.57;;;;;;;;;;6274666;22;20231;-92
2021/12/01 20:03:59;;;;;;;0.70;0.67;;;;;;;;;;6275365;22;20241;-92
2021/12/01 20:06:26;;;;;;;4.43;0.80;;;;;;;;;;6275495;22;20238;-92
2021/12/01 20:09:28;;;;;;;0.70;0.70;;;;;;;;;;6274790;22;20197;-92
2021/12/01 20:12:01;;;;;;;0.70;0.70;;;;;;;;;;6275334;22;20183;-91
2021/12/01 20:14:28;;;;;;;0.80;0.80;;;;;;;;;;6275852;22;20176;-92
2021/12/01 20:16:57;;;;;;;1.67;0.87;;;;;;;;;;6275736;22;20195;-92
2021/12/01 20:19:25;;;;;;;0.80;0.80;;;;;;;;;;6274454;22;20529;-92
2021/12/01 20:22:04;;;;;;;0.60;0.60;;;;;;;;;;6275360;22;20176;-92
2021/12/01 20:24:33;;;;;;;1.23;1.10;;;;;;;;;;6275971;22;20180;-92
2021/12/01 20:27:04;;;;;;;1.00;0.90;;;;;;;;;;6274029;22;20234;-92
2021/12/01 20:29:32;;;;;;;2.10;0.90;;;;;;;;;;6275710;22;20196;-92
2021/12/01 20:32:00;;;;;;;0.97;0.80;;;;;;;;;;6275680;22;20181;-92
2021/12/01 20:34:29;;;;;;;1.00;0.93;;;;;;;;;;6275392;22;20180;-92
2021/12/01 20:36:57;;;;;;;0.83;0.70;;;;;;;;;;6274327;22;20487;-92
2021/12/01 20:39:26;;;;;;;3.20;0.87;;;;;;;;;;6275818;22;20197;-92
2021/12/01 20:41:54;;;;;;;1.20;0.97;;;;;;;;;;6275492;22;20196;-92
2021/12/01 20:44:36;;;;;;;0.93;0.80;;;;;;;;;;6274435;22;20268;-92
2021/12/01 20:53:49;;;;;;;0.70;0.70;;;;;;;;;;6274622;22;20148;-92
2021/12/01 20:56:38;;;;;;;0.63;0.60;;;;;;;;;;6274376;22;20176;-92
2021/12/01 20:59:11;;;;;;;0.70;0.70;;;;;;;;;;6276058;22;20189;-92
2021/12/01 21:01:40;;;;;;;0.60;0.60;;;;;;;;;;6273420;22;20641;-93
2021/12/01 21:04:11;;;;;;;0.60;0.60;;;;;;;;;;6274928;22;20693;-92
2021/12/01 21:06:41;;;;;;;1.07;0.83;;;;;;;;;;6274557;22;20173;-92
2021/12/01 21:09:14;;;;;;;0.57;0.57;;;;;;;;;;6273420;22;20196;-91
2021/12/01 21:11:43;;;;;;;0.80;0.80;;;;;;;;;;6274545;22;20208;-91
2021/12/01 21:14:12;;;;;;;0.53;0.53;;;;;;;;;;6275636;22;20168;-93
2021/12/01 21:16:42;;;;;;;0.90;0.90;;;;;;;;;;6274881;22;20234;-92
2021/12/01 21:19:12;;;;;;;0.50;0.50;;;;;;;;;;6274242;22;20219;-92
2021/12/01 21:21:40;;;;;;;0.73;0.67;;;;;;;;;;6274560;22;20245;-93
2021/12/01 21:24:10;;;;;;;0.70;0.70;;;;;;;;;;6275019;22;20183;-92
2021/12/01 21:26:38;;;;;;;0.67;0.60;;;;;;;;;;6273384;22;20226;-91
2021/12/01 21:29:08;;;;;;;0.80;0.80;;;;;;;;;;6274788;22;20278;-92
2021/12/01 21:31:36;;;;;;;0.70;0.70;;;;;;;;;;6275127;22;20264;-93
2021/12/01 21:34:04;;;;;;;0.63;0.63;;;;;;;;;;6275425;22;20230;-92
2021/12/01 21:36:33;;;;;;;0.80;0.60;;;;;;;;;;6273314;22;20172;-92
2021/12/01 21:39:02;;;;;;;0.93;0.80;;;;;;;;;;6274377;22;20250;-92
2021/12/01 21:41:29;;;;;;;1.23;0.60;;;;;;;;;;6274900;22;20206;-92
2021/12/01 21:43:57;;;;;;;0.67;0.67;;;;;;;;;;6274185;22;20172;-92
2021/12/01 21:46:25;;;;;;;0.87;0.70;;;;;;;;;;6274235;22;20184;-92
2021/12/01 21:48:53;;;;;;;0.83;0.83;;;;;;;;;;6275228;22;20205;-92
2021/12/01 21:51:21;;;;;;;0.93;0.93;;;;;;;;;;6274295;22;20519;-90
2021/12/01 21:53:51;;;;;;;2.23;0.70;;;;;;;;;;6274651;22;20475;-92
2021/12/01 21:56:36;;;;;;;0.70;0.70;;;;;;;;;;6274821;22;20713;-92
2021/12/01 21:59:03;;;;;;;0.53;0.53;;;;;;;;;;6274818;22;20192;-92
2021/12/01 22:01:31;;;;;;;1.00;0.77;;;;;;;;;;6274970;22;20172;-92
2021/12/01 22:04:00;;;;;;;0.70;0.70;;;;;;;;;;6275223;22;20651;-92
2021/12/01 22:06:30;;;;;;;0.90;0.90;;;;;;;;;;6274987;22;20172;-91
2021/12/01 22:08:59;;;;;;;0.60;0.60;;;;;;;;;;6275658;22;20200;-91
2021/12/01 22:11:27;;;;;;;0.70;0.70;;;;;;;;;;6276700;22;20176;-91
2021/12/01 22:13:55;;;;;;;2.03;0.60;;;;;;;;;;6275176;22;20230;-90
2021/12/01 22:16:23;;;;;;;2.67;0.70;;;;;;;;;;6276709;22;20172;-91
2021/12/01 22:18:50;;;;;;;1.13;0.47;;;;;;;;;;6277021;22;20244;-91
2021/12/01 22:21:20;;;;;;;0.63;0.63;;;;;;;;;;6277134;22;20177;-91
2021/12/01 22:23:49;;;;;;;0.50;0.50;;;;;;;;;;6276376;22;20180;-91
2021/12/01 22:26:20;;;;;;;1.37;0.80;;;;;;;;;;6276413;22;20176;-91
2021/12/01 22:28:49;;;;;;;0.60;0.60;;;;;;;;;;6276858;22;20201;-91
2021/12/01 22:31:19;;;;;;;0.60;0.60;;;;;;;;;;6277074;22;20183;-91
2021/12/01 22:33:47;;;;;;;0.50;0.50;;;;;;;;;;6275959;22;20557;-91
2021/12/01 22:36:14;;;;;;;0.73;0.60;;;;;;;;;;6276269;22;20176;-91
2021/12/01 22:38:41;;;;;;;0.60;0.60;;;;;;;;;;6276401;22;20562;-91
2021/12/01 22:41:09;;;;;;;1.50;0.37;;;;;;;;;;6275183;22;20180;-90
2021/12/01 22:43:40;;;;;;;0.53;0.53;;;;;;;;;;6276648;22;20237;-91
2021/12/01 22:46:08;;;;;;;0.70;0.70;;;;;;;;;;6276436;22;20222;-91
2021/12/01 22:48:36;;;;;;;0.40;0.40;;;;;;;;;;6276547;22;20203;-91
2021/12/01 22:51:03;;;;;;;0.20;0.20;;;;;;;;;;6275843;22;20196;-91
2021/12/01 22:53:30;;;;;;;0.37;0.37;;;;;;;;;;6276596;22;20803;-91
2021/12/01 22:56:00;;;;;;;0.60;0.40;;;;;;;;;;6275865;22;20546;-91
2021/12/01 22:58:29;;;;;;;0.30;0.30;;;;;;;;;;6276974;22;20208;-92
2021/12/01 23:00:58;;;;;;;0.37;0.20;;;;;;;;;;6275203;22;20234;-91
2021/12/01 23:03:27;;;;;;;0.27;0.27;;;;;;;;;;6276454;22;20180;-92
2021/12/01 23:05:54;;;;;;;0.27;0.27;;;;;;;;;;6276250;22;20627;-91
2021/12/01 23:08:22;;;;;;;0.33;0.33;;;;;;;;;;6276193;22;20201;-91
2021/12/01 23:10:51;;;;;;;0.20;0.20;;;;;;;;;;6275226;22;20561;-90
2021/12/01 23:13:18;;;;;;;0.40;0.40;;;;;;;;;;6276557;22;20180;-91
2021/12/01 23:15:46;;;;;;;0.30;0.30;;;;;;;;;;6276171;22;20180;-91
2021/12/01 23:18:16;;;;;;;0.10;0.10;;;;;;;;;;6275012;22;20193;-89
2021/12/01 23:20:44;;;;;;;2.10;0.27;;;;;;;;;;6275713;22;20635;-91
2021/12/01 23:23:18;;;;;;;0.10;0.10;;;;;;;;;;6276155;22;20511;-91
2021/12/01 23:28:31;;;;;;;0.63;0.30;;;;;;;;;;6275445;22;20223;-91
2021/12/01 23:30:59;;;;;;;0.10;0.10;;;;;;;;;;6275935;22;20239;-91
2021/12/01 23:33:31;;;;;;;0.60;0.20;;;;;;;;;;6276446;22;20616;-91
2021/12/01 23:35:58;;;;;;;0.10;0.10;;;;;;;;;;6276396;22;20173;-90
2021/12/01 23:38:25;;;;;;;0.53;0.27;;;;;;;;;;6274175;22;20189;-91
2021/12/01 23:40:53;;;;;;;0.30;0.20;;;;;;;;;;6275681;22;20623;-91
2021/12/01 23:43:20;;;;;;;0.20;0.20;;;;;;;;;;6276007;22;20172;-91
2021/12/01 23:48:52;;;;;;;0.40;0.13;;;;;;;;;;6275702;22;20541;-90
2021/12/01 23:51:20;;;;;;;0.63;0.40;;;;;;;;;;6276482;22;20176;-91
2021/12/01 23:53:48;;;;;;;0.20;0.20;;;;;;;;;;6276120;22;20226;-91
2021/12/01 23:56:16;;;;;;;0.20;0.20;;;;;;;;;;6273923;22;20187;-92
2021/12/01 23:58:44;;;;;;;0.30;0.30;;;;;;;;;;6275855;22;20554;-91
